Columbia Falls, Montana
Current Conditions -  °F | °C
As of 8:55 AM on Thursday 27 Nov 2014 (Local Time) from KGPI Reporting Station
Overcast Overcast  
Wind Chill: 37°   Ceiling: 4100
Heat Index: 40°   Visibility: 10mi
Dew Point: 35°   Wind: 5mph
Humidity: 83%   Direction: 220°SW
Pressure: 29.88"   Gusts: NA
Location:  48.37°N, 114.18°W
Report Text: KGPI 271555Z 22004KT 10SM OVC041 04/02 A2988 RMK AO2 RAE1459 SLP138 P0000 T00440017
Loading
Personal Weather Stations






























Interactive Weather Map New forecast layout! Learn more

10-Day Weather Forecast

Advertisements
Track Severe Weather on mobile